sensor_id;sensor_type;location;lat;lon;timestamp;P1;durP1;ratioP1;P2;durP2;ratioP2
46731;SDS011;32477;51.474;5.696;2022-08-21T00:01:19;16.90;;;8.35;;
46731;SDS011;32477;51.474;5.696;2022-08-21T00:03:47;16.90;;;9.10;;
46731;SDS011;32477;51.474;5.696;2022-08-21T00:06:13;15.70;;;9.82;;
46731;SDS011;32477;51.474;5.696;2022-08-21T00:08:39;16.10;;;9.10;;
46731;SDS011;32477;51.474;5.696;2022-08-21T00:11:06;20.35;;;10.73;;
46731;SDS011;32477;51.474;5.696;2022-08-21T00:13:32;32.05;;;10.40;;
46731;SDS011;32477;51.474;5.696;2022-08-21T00:15:58;15.52;;;9.57;;
46731;SDS011;32477;51.474;5.696;2022-08-21T00:18:24;16.27;;;10.20;;
46731;SDS011;32477;51.474;5.696;2022-08-21T00:20:50;13.35;;;9.57;;
46731;SDS011;32477;51.474;5.696;2022-08-21T00:23:16;17.55;;;10.90;;
46731;SDS011;32477;51.474;5.696;2022-08-21T00:25:42;24.17;;;16.40;;
46731;SDS011;32477;51.474;5.696;2022-08-21T00:28:09;19.63;;;13.10;;
46731;SDS011;32477;51.474;5.696;2022-08-21T00:30:35;27.58;;;12.27;;
46731;SDS011;32477;51.474;5.696;2022-08-21T00:33:01;22.45;;;12.20;;
46731;SDS011;32477;51.474;5.696;2022-08-21T00:35:29;19.80;;;11.10;;
46731;SDS011;32477;51.474;5.696;2022-08-21T00:37:57;25.90;;;11.40;;
46731;SDS011;32477;51.474;5.696;2022-08-21T00:40:25;16.42;;;10.10;;
46731;SDS011;32477;51.474;5.696;2022-08-21T00:43:04;16.88;;;9.88;;
46731;SDS011;32477;51.474;5.696;2022-08-21T00:45:31;22.55;;;10.40;;
46731;SDS011;32477;51.474;5.696;2022-08-21T00:47:57;21.33;;;10.00;;
46731;SDS011;32477;51.474;5.696;2022-08-21T00:50:25;20.02;;;10.57;;
46731;SDS011;32477;51.474;5.696;2022-08-21T00:53:03;17.33;;;10.77;;
46731;SDS011;32477;51.474;5.696;2022-08-21T00:55:31;22.65;;;12.40;;
46731;SDS011;32477;51.474;5.696;2022-08-21T00:58:01;21.60;;;11.57;;
46731;SDS011;32477;51.474;5.696;2022-08-21T01:00:31;35.50;;;13.23;;
46731;SDS011;32477;51.474;5.696;2022-08-21T01:02:59;23.45;;;12.00;;
46731;SDS011;32477;51.474;5.696;2022-08-21T01:05:26;24.98;;;14.20;;
46731;SDS011;32477;51.474;5.696;2022-08-21T01:07:52;24.35;;;15.25;;
46731;SDS011;32477;51.474;5.696;2022-08-21T01:10:21;35.35;;;16.65;;
46731;SDS011;32477;51.474;5.696;2022-08-21T01:12:48;29.63;;;17.80;;
46731;SDS011;32477;51.474;5.696;2022-08-21T01:15:15;27.77;;;16.38;;
46731;SDS011;32477;51.474;5.696;2022-08-21T01:17:43;38.40;;;18.20;;
46731;SDS011;32477;51.474;5.696;2022-08-21T01:20:09;30.17;;;17.55;;
46731;SDS011;32477;51.474;5.696;2022-08-21T01:22:36;27.40;;;16.55;;
46731;SDS011;32477;51.474;5.696;2022-08-21T01:25:08;23.50;;;13.90;;
46731;SDS011;32477;51.474;5.696;2022-08-21T01:27:35;20.55;;;13.10;;
46731;SDS011;32477;51.474;5.696;2022-08-21T01:30:09;22.63;;;14.68;;
46731;SDS011;32477;51.474;5.696;2022-08-21T01:32:38;22.15;;;14.07;;
46731;SDS011;32477;51.474;5.696;2022-08-21T01:35:04;27.83;;;14.82;;
46731;SDS011;32477;51.474;5.696;2022-08-21T01:37:31;29.15;;;14.68;;
46731;SDS011;32477;51.474;5.696;2022-08-21T01:39:57;20.50;;;13.57;;
46731;SDS011;32477;51.474;5.696;2022-08-21T01:42:24;23.40;;;14.60;;
46731;SDS011;32477;51.474;5.696;2022-08-21T01:44:49;22.58;;;14.68;;
46731;SDS011;32477;51.474;5.696;2022-08-21T01:47:15;29.05;;;15.60;;
46731;SDS011;32477;51.474;5.696;2022-08-21T01:49:41;25.20;;;15.55;;
46731;SDS011;32477;51.474;5.696;2022-08-21T01:52:08;28.13;;;16.85;;
46731;SDS011;32477;51.474;5.696;2022-08-21T01:54:34;32.22;;;17.10;;
46731;SDS011;32477;51.474;5.696;2022-08-21T01:57:01;28.85;;;17.95;;
46731;SDS011;32477;51.474;5.696;2022-08-21T01:59:27;30.55;;;17.27;;
46731;SDS011;32477;51.474;5.696;2022-08-21T02:01:53;33.08;;;18.05;;
46731;SDS011;32477;51.474;5.696;2022-08-21T02:04:20;32.83;;;18.40;;
46731;SDS011;32477;51.474;5.696;2022-08-21T02:06:46;36.42;;;18.63;;
46731;SDS011;32477;51.474;5.696;2022-08-21T02:09:12;31.55;;;17.08;;
46731;SDS011;32477;51.474;5.696;2022-08-21T02:11:39;35.70;;;17.67;;
46731;SDS011;32477;51.474;5.696;2022-08-21T02:14:08;34.85;;;18.10;;
46731;SDS011;32477;51.474;5.696;2022-08-21T02:16:36;32.17;;;18.48;;
46731;SDS011;32477;51.474;5.696;2022-08-21T02:19:03;30.02;;;17.13;;
46731;SDS011;32477;51.474;5.696;2022-08-21T02:21:29;31.58;;;16.70;;
46731;SDS011;32477;51.474;5.696;2022-08-21T02:23:56;25.85;;;15.90;;
46731;SDS011;32477;51.474;5.696;2022-08-21T02:26:22;29.85;;;16.02;;
46731;SDS011;32477;51.474;5.696;2022-08-21T02:28:48;29.10;;;15.88;;
46731;SDS011;32477;51.474;5.696;2022-08-21T02:31:13;27.58;;;15.43;;
46731;SDS011;32477;51.474;5.696;2022-08-21T02:33:39;28.80;;;15.95;;
46731;SDS011;32477;51.474;5.696;2022-08-21T02:36:05;27.80;;;15.60;;
46731;SDS011;32477;51.474;5.696;2022-08-21T02:38:33;22.90;;;14.05;;
46731;SDS011;32477;51.474;5.696;2022-08-21T02:41:03;26.65;;;14.02;;
46731;SDS011;32477;51.474;5.696;2022-08-21T02:43:34;26.45;;;15.50;;
46731;SDS011;32477;51.474;5.696;2022-08-21T02:46:00;30.17;;;16.65;;
46731;SDS011;32477;51.474;5.696;2022-08-21T02:48:28;27.70;;;15.88;;
46731;SDS011;32477;51.474;5.696;2022-08-21T02:51:00;24.25;;;16.63;;
46731;SDS011;32477;51.474;5.696;2022-08-21T02:53:33;26.50;;;16.70;;
46731;SDS011;32477;51.474;5.696;2022-08-21T02:56:01;30.85;;;18.27;;
46731;SDS011;32477;51.474;5.696;2022-08-21T02:58:35;32.53;;;19.00;;
46731;SDS011;32477;51.474;5.696;2022-08-21T03:01:03;31.92;;;19.48;;
46731;SDS011;32477;51.474;5.696;2022-08-21T03:03:29;40.10;;;19.23;;
46731;SDS011;32477;51.474;5.696;2022-08-21T03:05:55;34.47;;;19.85;;
46731;SDS011;32477;51.474;5.696;2022-08-21T03:08:22;34.50;;;19.33;;
46731;SDS011;32477;51.474;5.696;2022-08-21T03:10:49;35.63;;;19.70;;
46731;SDS011;32477;51.474;5.696;2022-08-21T03:13:16;36.67;;;18.67;;
46731;SDS011;32477;51.474;5.696;2022-08-21T03:15:43;33.45;;;19.52;;
46731;SDS011;32477;51.474;5.696;2022-08-21T03:18:09;30.75;;;18.77;;
46731;SDS011;32477;51.474;5.696;2022-08-21T03:20:36;31.60;;;18.38;;
46731;SDS011;32477;51.474;5.696;2022-08-21T03:23:03;31.27;;;18.48;;
46731;SDS011;32477;51.474;5.696;2022-08-21T03:25:30;29.77;;;16.25;;
46731;SDS011;32477;51.474;5.696;2022-08-21T03:28:02;29.90;;;17.25;;
46731;SDS011;32477;51.474;5.696;2022-08-21T03:30:30;24.17;;;15.88;;
46731;SDS011;32477;51.474;5.696;2022-08-21T03:32:56;26.20;;;15.10;;
46731;SDS011;32477;51.474;5.696;2022-08-21T03:35:24;23.63;;;15.77;;
46731;SDS011;32477;51.474;5.696;2022-08-21T03:37:49;29.88;;;14.98;;
46731;SDS011;32477;51.474;5.696;2022-08-21T03:40:16;21.70;;;13.73;;
46731;SDS011;32477;51.474;5.696;2022-08-21T03:42:43;23.75;;;14.18;;
46731;SDS011;32477;51.474;5.696;2022-08-21T03:45:12;27.70;;;15.07;;
46731;SDS011;32477;51.474;5.696;2022-08-21T03:47:39;25.42;;;14.00;;
46731;SDS011;32477;51.474;5.696;2022-08-21T03:50:15;20.90;;;14.07;;
46731;SDS011;32477;51.474;5.696;2022-08-21T03:52:42;22.23;;;14.75;;
46731;SDS011;32477;51.474;5.696;2022-08-21T03:55:08;23.25;;;13.65;;
46731;SDS011;32477;51.474;5.696;2022-08-21T03:57:33;20.17;;;14.02;;
46731;SDS011;32477;51.474;5.696;2022-08-21T03:59:59;22.83;;;14.02;;
46731;SDS011;32477;51.474;5.696;2022-08-21T04:02:24;20.90;;;13.20;;
46731;SDS011;32477;51.474;5.696;2022-08-21T04:04:50;19.90;;;13.02;;
46731;SDS011;32477;51.474;5.696;2022-08-21T04:07:15;22.90;;;13.05;;
46731;SDS011;32477;51.474;5.696;2022-08-21T04:09:42;19.63;;;12.20;;
46731;SDS011;32477;51.474;5.696;2022-08-21T04:12:08;25.10;;;13.43;;
46731;SDS011;32477;51.474;5.696;2022-08-21T04:14:33;18.77;;;12.60;;
46731;SDS011;32477;51.474;5.696;2022-08-21T04:16:59;20.55;;;12.80;;
46731;SDS011;32477;51.474;5.696;2022-08-21T04:19:25;21.27;;;13.18;;
46731;SDS011;32477;51.474;5.696;2022-08-21T04:21:50;20.63;;;12.15;;
46731;SDS011;32477;51.474;5.696;2022-08-21T04:24:16;26.00;;;13.50;;
46731;SDS011;32477;51.474;5.696;2022-08-21T04:26:41;26.55;;;13.73;;
46731;SDS011;32477;51.474;5.696;2022-08-21T04:29:07;23.45;;;14.05;;
46731;SDS011;32477;51.474;5.696;2022-08-21T04:31:34;24.60;;;13.02;;
46731;SDS011;32477;51.474;5.696;2022-08-21T04:34:01;20.75;;;12.23;;
46731;SDS011;32477;51.474;5.696;2022-08-21T04:36:28;25.45;;;13.57;;
46731;SDS011;32477;51.474;5.696;2022-08-21T04:38:54;21.75;;;13.60;;
46731;SDS011;32477;51.474;5.696;2022-08-21T04:41:19;25.27;;;14.13;;
46731;SDS011;32477;51.474;5.696;2022-08-21T04:43:45;27.55;;;13.85;;
46731;SDS011;32477;51.474;5.696;2022-08-21T04:46:11;38.70;;;13.52;;
46731;SDS011;32477;51.474;5.696;2022-08-21T04:48:37;26.17;;;12.52;;
46731;SDS011;32477;51.474;5.696;2022-08-21T04:51:05;23.00;;;12.40;;
46731;SDS011;32477;51.474;5.696;2022-08-21T04:53:44;23.23;;;12.57;;
46731;SDS011;32477;51.474;5.696;2022-08-21T04:56:28;24.27;;;12.93;;
46731;SDS011;32477;51.474;5.696;2022-08-21T04:58:57;26.40;;;12.48;;
46731;SDS011;32477;51.474;5.696;2022-08-21T05:01:28;22.08;;;14.05;;
46731;SDS011;32477;51.474;5.696;2022-08-21T05:03:57;37.83;;;12.82;;
46731;SDS011;32477;51.474;5.696;2022-08-21T05:06:25;26.92;;;12.50;;
46731;SDS011;32477;51.474;5.696;2022-08-21T05:08:55;23.40;;;12.43;;
46731;SDS011;32477;51.474;5.696;2022-08-21T05:11:21;23.40;;;11.85;;
46731;SDS011;32477;51.474;5.696;2022-08-21T05:13:47;25.40;;;12.45;;
46731;SDS011;32477;51.474;5.696;2022-08-21T05:16:14;23.52;;;12.07;;
46731;SDS011;32477;51.474;5.696;2022-08-21T05:18:40;22.67;;;12.40;;
46731;SDS011;32477;51.474;5.696;2022-08-21T05:21:07;20.15;;;11.25;;
46731;SDS011;32477;51.474;5.696;2022-08-21T05:23:33;20.90;;;11.77;;
46731;SDS011;32477;51.474;5.696;2022-08-21T05:26:00;18.15;;;11.20;;
46731;SDS011;32477;51.474;5.696;2022-08-21T05:28:26;20.80;;;11.25;;
46731;SDS011;32477;51.474;5.696;2022-08-21T05:30:51;15.75;;;11.02;;
46731;SDS011;32477;51.474;5.696;2022-08-21T05:33:18;18.77;;;10.30;;
46731;SDS011;32477;51.474;5.696;2022-08-21T05:35:44;16.38;;;8.73;;
46731;SDS011;32477;51.474;5.696;2022-08-21T05:38:09;17.52;;;8.05;;
46731;SDS011;32477;51.474;5.696;2022-08-21T05:40:35;17.33;;;6.82;;
46731;SDS011;32477;51.474;5.696;2022-08-21T05:43:01;11.82;;;6.35;;
46731;SDS011;32477;51.474;5.696;2022-08-21T05:45:31;8.68;;;5.95;;
46731;SDS011;32477;51.474;5.696;2022-08-21T05:47:57;19.58;;;5.97;;
46731;SDS011;32477;51.474;5.696;2022-08-21T05:50:29;11.63;;;6.85;;
46731;SDS011;32477;51.474;5.696;2022-08-21T05:52:56;17.17;;;5.93;;
46731;SDS011;32477;51.474;5.696;2022-08-21T05:55:21;10.75;;;5.68;;
46731;SDS011;32477;51.474;5.696;2022-08-21T05:57:47;13.00;;;5.70;;
46731;SDS011;32477;51.474;5.696;2022-08-21T06:00:13;8.73;;;4.68;;
46731;SDS011;32477;51.474;5.696;2022-08-21T06:02:39;9.57;;;5.43;;
46731;SDS011;32477;51.474;5.696;2022-08-21T06:05:05;14.13;;;5.07;;
46731;SDS011;32477;51.474;5.696;2022-08-21T06:07:31;12.40;;;4.93;;
46731;SDS011;32477;51.474;5.696;2022-08-21T06:09:57;12.07;;;4.95;;
46731;SDS011;32477;51.474;5.696;2022-08-21T06:12:23;10.85;;;4.25;;
46731;SDS011;32477;51.474;5.696;2022-08-21T06:14:49;10.40;;;5.53;;
46731;SDS011;32477;51.474;5.696;2022-08-21T06:17:17;9.70;;;3.72;;
46731;SDS011;32477;51.474;5.696;2022-08-21T06:19:43;12.45;;;4.32;;
46731;SDS011;32477;51.474;5.696;2022-08-21T06:22:09;9.70;;;3.80;;
46731;SDS011;32477;51.474;5.696;2022-08-21T06:24:35;11.48;;;3.92;;
46731;SDS011;32477;51.474;5.696;2022-08-21T06:27:05;11.95;;;3.97;;
46731;SDS011;32477;51.474;5.696;2022-08-21T06:29:32;9.52;;;4.07;;
46731;SDS011;32477;51.474;5.696;2022-08-21T06:31:59;7.20;;;3.78;;
46731;SDS011;32477;51.474;5.696;2022-08-21T06:34:24;15.48;;;3.70;;
46731;SDS011;32477;51.474;5.696;2022-08-21T06:36:50;11.50;;;4.20;;
46731;SDS011;32477;51.474;5.696;2022-08-21T06:39:16;11.65;;;4.03;;
46731;SDS011;32477;51.474;5.696;2022-08-21T06:41:41;14.75;;;4.25;;
46731;SDS011;32477;51.474;5.696;2022-08-21T06:44:07;10.35;;;4.00;;
46731;SDS011;32477;51.474;5.696;2022-08-21T06:46:33;8.07;;;3.70;;
46731;SDS011;32477;51.474;5.696;2022-08-21T06:48:58;9.52;;;3.42;;
46731;SDS011;32477;51.474;5.696;2022-08-21T06:51:25;13.38;;;3.80;;
46731;SDS011;32477;51.474;5.696;2022-08-21T06:53:51;9.75;;;3.03;;
46731;SDS011;32477;51.474;5.696;2022-08-21T06:56:18;7.72;;;3.22;;
46731;SDS011;32477;51.474;5.696;2022-08-21T06:58:44;6.22;;;3.30;;
46731;SDS011;32477;51.474;5.696;2022-08-21T07:01:09;5.80;;;3.00;;
46731;SDS011;32477;51.474;5.696;2022-08-21T07:03:37;10.73;;;3.75;;
46731;SDS011;32477;51.474;5.696;2022-08-21T07:06:05;10.95;;;3.30;;
46731;SDS011;32477;51.474;5.696;2022-08-21T07:08:32;8.27;;;3.63;;
46731;SDS011;32477;51.474;5.696;2022-08-21T07:11:00;6.85;;;2.92;;
46731;SDS011;32477;51.474;5.696;2022-08-21T07:13:28;13.07;;;3.50;;
46731;SDS011;32477;51.474;5.696;2022-08-21T07:15:54;12.18;;;3.45;;
46731;SDS011;32477;51.474;5.696;2022-08-21T07:18:20;10.13;;;3.40;;
46731;SDS011;32477;51.474;5.696;2022-08-21T07:20:46;10.75;;;2.92;;
46731;SDS011;32477;51.474;5.696;2022-08-21T07:23:13;12.13;;;3.45;;
46731;SDS011;32477;51.474;5.696;2022-08-21T07:25:44;11.73;;;3.72;;
46731;SDS011;32477;51.474;5.696;2022-08-21T07:28:10;13.82;;;3.83;;
46731;SDS011;32477;51.474;5.696;2022-08-21T07:30:36;7.63;;;3.40;;
46731;SDS011;32477;51.474;5.696;2022-08-21T07:33:01;13.07;;;3.25;;
46731;SDS011;32477;51.474;5.696;2022-08-21T07:35:27;11.07;;;3.08;;
46731;SDS011;32477;51.474;5.696;2022-08-21T07:37:53;10.93;;;3.42;;
46731;SDS011;32477;51.474;5.696;2022-08-21T07:40:18;8.95;;;2.95;;
46731;SDS011;32477;51.474;5.696;2022-08-21T07:42:45;11.25;;;3.08;;
46731;SDS011;32477;51.474;5.696;2022-08-21T07:45:12;6.88;;;3.03;;
46731;SDS011;32477;51.474;5.696;2022-08-21T07:47:39;12.23;;;3.53;;
46731;SDS011;32477;51.474;5.696;2022-08-21T07:50:05;10.30;;;3.15;;
46731;SDS011;32477;51.474;5.696;2022-08-21T07:52:32;11.52;;;3.00;;
46731;SDS011;32477;51.474;5.696;2022-08-21T07:54:58;14.00;;;2.80;;
46731;SDS011;32477;51.474;5.696;2022-08-21T07:57:25;15.82;;;3.00;;
46731;SDS011;32477;51.474;5.696;2022-08-21T07:59:50;6.57;;;2.90;;
46731;SDS011;32477;51.474;5.696;2022-08-21T08:02:23;9.45;;;3.05;;
46731;SDS011;32477;51.474;5.696;2022-08-21T08:04:50;10.35;;;3.50;;
46731;SDS011;32477;51.474;5.696;2022-08-21T08:07:16;15.25;;;3.17;;
46731;SDS011;32477;51.474;5.696;2022-08-21T08:09:41;16.95;;;3.45;;
46731;SDS011;32477;51.474;5.696;2022-08-21T08:12:07;16.45;;;3.15;;
46731;SDS011;32477;51.474;5.696;2022-08-21T08:14:32;7.60;;;2.72;;
46731;SDS011;32477;51.474;5.696;2022-08-21T08:16:58;10.93;;;2.58;;
46731;SDS011;32477;51.474;5.696;2022-08-21T08:19:24;6.25;;;2.25;;
46731;SDS011;32477;51.474;5.696;2022-08-21T08:21:49;11.77;;;3.60;;
46731;SDS011;32477;51.474;5.696;2022-08-21T08:24:15;15.20;;;2.83;;
46731;SDS011;32477;51.474;5.696;2022-08-21T08:26:41;12.02;;;2.58;;
46731;SDS011;32477;51.474;5.696;2022-08-21T08:29:06;12.43;;;3.03;;
46731;SDS011;32477;51.474;5.696;2022-08-21T08:31:32;9.70;;;2.80;;
46731;SDS011;32477;51.474;5.696;2022-08-21T08:33:58;14.38;;;3.08;;
46731;SDS011;32477;51.474;5.696;2022-08-21T08:36:31;10.88;;;2.58;;
46731;SDS011;32477;51.474;5.696;2022-08-21T08:38:58;8.52;;;2.03;;
46731;SDS011;32477;51.474;5.696;2022-08-21T08:41:25;11.00;;;2.33;;
46731;SDS011;32477;51.474;5.696;2022-08-21T08:43:52;10.52;;;2.00;;
46731;SDS011;32477;51.474;5.696;2022-08-21T08:46:21;7.72;;;2.00;;
46731;SDS011;32477;51.474;5.696;2022-08-21T08:49:00;10.35;;;2.05;;
46731;SDS011;32477;51.474;5.696;2022-08-21T08:51:42;10.90;;;2.30;;
46731;SDS011;32477;51.474;5.696;2022-08-21T08:54:25;11.18;;;2.53;;
46731;SDS011;32477;51.474;5.696;2022-08-21T08:56:57;9.95;;;2.80;;
46731;SDS011;32477;51.474;5.696;2022-08-21T08:59:26;7.45;;;2.17;;
46731;SDS011;32477;51.474;5.696;2022-08-21T09:02:03;10.88;;;2.13;;
46731;SDS011;32477;51.474;5.696;2022-08-21T09:04:30;12.48;;;2.17;;
46731;SDS011;32477;51.474;5.696;2022-08-21T09:07:01;9.40;;;2.05;;
46731;SDS011;32477;51.474;5.696;2022-08-21T09:17:39;8.68;;;1.95;;
46731;SDS011;32477;51.474;5.696;2022-08-21T09:20:17;10.20;;;1.90;;
46731;SDS011;32477;51.474;5.696;2022-08-21T09:22:56;8.18;;;2.00;;
46731;SDS011;32477;51.474;5.696;2022-08-21T09:25:41;7.82;;;1.95;;
46731;SDS011;32477;51.474;5.696;2022-08-21T09:28:30;11.73;;;1.63;;
46731;SDS011;32477;51.474;5.696;2022-08-21T09:30:58;5.07;;;1.60;;
46731;SDS011;32477;51.474;5.696;2022-08-21T09:33:27;10.88;;;1.90;;
46731;SDS011;32477;51.474;5.696;2022-08-21T09:35:54;6.93;;;1.85;;
46731;SDS011;32477;51.474;5.696;2022-08-21T09:41:01;4.80;;;1.80;;
46731;SDS011;32477;51.474;5.696;2022-08-21T09:43:29;9.95;;;2.10;;
46731;SDS011;32477;51.474;5.696;2022-08-21T09:46:04;10.27;;;2.38;;
46731;SDS011;32477;51.474;5.696;2022-08-21T09:48:43;13.52;;;1.85;;
46731;SDS011;32477;51.474;5.696;2022-08-21T09:51:12;9.10;;;1.75;;
46731;SDS011;32477;51.474;5.696;2022-08-21T09:53:46;7.00;;;1.40;;
46731;SDS011;32477;51.474;5.696;2022-08-21T09:59:45;10.68;;;1.83;;
46731;SDS011;32477;51.474;5.696;2022-08-21T10:02:25;8.63;;;1.83;;
46731;SDS011;32477;51.474;5.696;2022-08-21T10:04:55;10.45;;;1.90;;
46731;SDS011;32477;51.474;5.696;2022-08-21T10:07:23;8.00;;;1.90;;
46731;SDS011;32477;51.474;5.696;2022-08-21T10:09:58;10.57;;;2.50;;
46731;SDS011;32477;51.474;5.696;2022-08-21T10:18:22;5.93;;;1.80;;
46731;SDS011;32477;51.474;5.696;2022-08-21T10:20:56;12.43;;;1.85;;
46731;SDS011;32477;51.474;5.696;2022-08-21T10:23:30;7.68;;;1.98;;
46731;SDS011;32477;51.474;5.696;2022-08-21T10:31:38;6.47;;;1.35;;
46731;SDS011;32477;51.474;5.696;2022-08-21T10:48:22;7.00;;;1.70;;
46731;SDS011;32477;51.474;5.696;2022-08-21T10:56:59;12.43;;;1.70;;
46731;SDS011;32477;51.474;5.696;2022-08-21T11:02:42;5.88;;;1.67;;
46731;SDS011;32477;51.474;5.696;2022-08-21T11:05:24;5.53;;;1.40;;
46731;SDS011;32477;51.474;5.696;2022-08-21T11:08:12;5.78;;;1.70;;
46731;SDS011;32477;51.474;5.696;2022-08-21T11:10:42;6.63;;;1.63;;
46731;SDS011;32477;51.474;5.696;2022-08-21T11:18:49;6.93;;;1.20;;
46731;SDS011;32477;51.474;5.696;2022-08-21T11:21:30;5.18;;;1.73;;
46731;SDS011;32477;51.474;5.696;2022-08-21T11:24:32;7.07;;;1.48;;
46731;SDS011;32477;51.474;5.696;2022-08-21T11:27:04;5.50;;;1.60;;
46731;SDS011;32477;51.474;5.696;2022-08-21T11:29:39;4.43;;;1.35;;
46731;SDS011;32477;51.474;5.696;2022-08-21T11:40:02;10.10;;;2.10;;
46731;SDS011;32477;51.474;5.696;2022-08-21T11:42:37;4.72;;;1.55;;
46731;SDS011;32477;51.474;5.696;2022-08-21T11:45:10;5.22;;;2.35;;
46731;SDS011;32477;51.474;5.696;2022-08-21T11:51:07;8.15;;;1.80;;
46731;SDS011;32477;51.474;5.696;2022-08-21T11:53:42;8.85;;;2.10;;
46731;SDS011;32477;51.474;5.696;2022-08-21T11:56:17;5.00;;;1.70;;
46731;SDS011;32477;51.474;5.696;2022-08-21T11:58:47;6.07;;;2.42;;
46731;SDS011;32477;51.474;5.696;2022-08-21T12:01:22;5.85;;;1.90;;
46731;SDS011;32477;51.474;5.696;2022-08-21T12:04:01;4.93;;;1.83;;
46731;SDS011;32477;51.474;5.696;2022-08-21T12:06:38;10.82;;;2.40;;
46731;SDS011;32477;51.474;5.696;2022-08-21T12:09:10;5.68;;;2.20;;
46731;SDS011;32477;51.474;5.696;2022-08-21T12:11:50;5.85;;;1.92;;
46731;SDS011;32477;51.474;5.696;2022-08-21T12:14:34;5.72;;;1.92;;
46731;SDS011;32477;51.474;5.696;2022-08-21T12:17:06;8.48;;;2.22;;
46731;SDS011;32477;51.474;5.696;2022-08-21T12:19:33;7.35;;;1.92;;
46731;SDS011;32477;51.474;5.696;2022-08-21T12:27:20;9.63;;;2.58;;
46731;SDS011;32477;51.474;5.696;2022-08-21T12:30:06;5.65;;;1.77;;
46731;SDS011;32477;51.474;5.696;2022-08-21T12:33:06;11.85;;;2.50;;
46731;SDS011;32477;51.474;5.696;2022-08-21T12:35:45;10.52;;;2.20;;
46731;SDS011;32477;51.474;5.696;2022-08-21T12:38:15;7.53;;;2.15;;
46731;SDS011;32477;51.474;5.696;2022-08-21T12:40:55;7.60;;;2.28;;
46731;SDS011;32477;51.474;5.696;2022-08-21T12:43:35;30.50;;;21.48;;
46731;SDS011;32477;51.474;5.696;2022-08-21T12:46:14;13.95;;;8.00;;
46731;SDS011;32477;51.474;5.696;2022-08-21T12:48:54;51.40;;;29.70;;
46731;SDS011;32477;51.474;5.696;2022-08-21T12:51:29;43.00;;;29.98;;
46731;SDS011;32477;51.474;5.696;2022-08-21T12:54:01;13.45;;;7.50;;
46731;SDS011;32477;51.474;5.696;2022-08-21T12:56:28;10.43;;;3.95;;
46731;SDS011;32477;51.474;5.696;2022-08-21T12:59:00;10.40;;;3.33;;
46731;SDS011;32477;51.474;5.696;2022-08-21T13:01:30;7.13;;;3.40;;
46731;SDS011;32477;51.474;5.696;2022-08-21T13:03:58;11.73;;;3.72;;
46731;SDS011;32477;51.474;5.696;2022-08-21T13:06:29;9.38;;;4.38;;
46731;SDS011;32477;51.474;5.696;2022-08-21T13:09:03;36.67;;;18.65;;
46731;SDS011;32477;51.474;5.696;2022-08-21T13:11:31;13.55;;;7.78;;
46731;SDS011;32477;51.474;5.696;2022-08-21T13:13:58;15.02;;;9.40;;
46731;SDS011;32477;51.474;5.696;2022-08-21T13:16:27;10.65;;;5.25;;
46731;SDS011;32477;51.474;5.696;2022-08-21T13:18:56;9.27;;;3.10;;
46731;SDS011;32477;51.474;5.696;2022-08-21T13:21:27;9.50;;;2.30;;
46731;SDS011;32477;51.474;5.696;2022-08-21T13:26:54;12.23;;;3.58;;
46731;SDS011;32477;51.474;5.696;2022-08-21T13:29:22;8.25;;;3.95;;
46731;SDS011;32477;51.474;5.696;2022-08-21T13:31:56;42.20;;;30.58;;
46731;SDS011;32477;51.474;5.696;2022-08-21T13:34:25;19.37;;;9.63;;
46731;SDS011;32477;51.474;5.696;2022-08-21T13:36:57;9.65;;;4.38;;
46731;SDS011;32477;51.474;5.696;2022-08-21T13:39:25;19.90;;;7.30;;
46731;SDS011;32477;51.474;5.696;2022-08-21T13:41:52;46.03;;;40.65;;
46731;SDS011;32477;51.474;5.696;2022-08-21T13:44:23;18.58;;;14.07;;
46731;SDS011;32477;51.474;5.696;2022-08-21T13:46:57;12.07;;;7.15;;
46731;SDS011;32477;51.474;5.696;2022-08-21T13:49:29;9.52;;;2.88;;
46731;SDS011;32477;51.474;5.696;2022-08-21T13:51:57;6.50;;;2.58;;
46731;SDS011;32477;51.474;5.696;2022-08-21T13:54:27;7.15;;;2.22;;
46731;SDS011;32477;51.474;5.696;2022-08-21T13:56:59;8.45;;;2.33;;
46731;SDS011;32477;51.474;5.696;2022-08-21T14:01:59;12.98;;;4.30;;
46731;SDS011;32477;51.474;5.696;2022-08-21T14:04:42;6.35;;;2.95;;
46731;SDS011;32477;51.474;5.696;2022-08-21T14:07:17;9.60;;;4.00;;
46731;SDS011;32477;51.474;5.696;2022-08-21T14:09:56;22.45;;;15.85;;
46731;SDS011;32477;51.474;5.696;2022-08-21T14:12:26;35.88;;;24.98;;
46731;SDS011;32477;51.474;5.696;2022-08-21T14:14:57;15.75;;;10.30;;
46731;SDS011;32477;51.474;5.696;2022-08-21T14:17:31;16.90;;;13.13;;
46731;SDS011;32477;51.474;5.696;2022-08-21T14:20:03;9.70;;;4.95;;
46731;SDS011;32477;51.474;5.696;2022-08-21T14:22:39;16.25;;;5.82;;
46731;SDS011;32477;51.474;5.696;2022-08-21T14:27:39;77.75;;;53.38;;
46731;SDS011;32477;51.474;5.696;2022-08-21T14:30:19;13.35;;;5.00;;
46731;SDS011;32477;51.474;5.696;2022-08-21T14:33:02;13.30;;;7.22;;
46731;SDS011;32477;51.474;5.696;2022-08-21T14:35:32;10.90;;;4.57;;
46731;SDS011;32477;51.474;5.696;2022-08-21T14:37:58;17.80;;;6.55;;
46731;SDS011;32477;51.474;5.696;2022-08-21T14:40:24;11.13;;;3.40;;
46731;SDS011;32477;51.474;5.696;2022-08-21T14:42:50;19.17;;;3.17;;
46731;SDS011;32477;51.474;5.696;2022-08-21T14:45:18;23.63;;;10.10;;
46731;SDS011;32477;51.474;5.696;2022-08-21T14:47:54;17.25;;;7.32;;
46731;SDS011;32477;51.474;5.696;2022-08-21T14:50:21;14.82;;;5.03;;
46731;SDS011;32477;51.474;5.696;2022-08-21T14:52:47;15.00;;;5.97;;
46731;SDS011;32477;51.474;5.696;2022-08-21T14:55:13;11.20;;;3.15;;
46731;SDS011;32477;51.474;5.696;2022-08-21T14:57:44;9.18;;;3.42;;
46731;SDS011;32477;51.474;5.696;2022-08-21T15:00:16;6.10;;;2.70;;
46731;SDS011;32477;51.474;5.696;2022-08-21T15:02:46;16.33;;;3.80;;
46731;SDS011;32477;51.474;5.696;2022-08-21T15:05:12;8.68;;;3.03;;
46731;SDS011;32477;51.474;5.696;2022-08-21T15:07:38;11.52;;;4.00;;
46731;SDS011;32477;51.474;5.696;2022-08-21T15:10:04;7.88;;;2.95;;
46731;SDS011;32477;51.474;5.696;2022-08-21T15:12:31;11.88;;;3.92;;
46731;SDS011;32477;51.474;5.696;2022-08-21T15:14:57;26.10;;;5.68;;
46731;SDS011;32477;51.474;5.696;2022-08-21T15:17:23;20.65;;;5.18;;
46731;SDS011;32477;51.474;5.696;2022-08-21T15:19:48;14.52;;;4.00;;
46731;SDS011;32477;51.474;5.696;2022-08-21T15:22:14;27.92;;;9.98;;
46731;SDS011;32477;51.474;5.696;2022-08-21T15:24:40;26.25;;;6.90;;
46731;SDS011;32477;51.474;5.696;2022-08-21T15:27:06;11.60;;;3.80;;
46731;SDS011;32477;51.474;5.696;2022-08-21T15:29:32;12.00;;;3.63;;
46731;SDS011;32477;51.474;5.696;2022-08-21T15:32:16;10.38;;;5.05;;
46731;SDS011;32477;51.474;5.696;2022-08-21T15:34:51;16.30;;;4.85;;
46731;SDS011;32477;51.474;5.696;2022-08-21T15:37:18;10.60;;;3.28;;
46731;SDS011;32477;51.474;5.696;2022-08-21T15:39:44;11.02;;;4.07;;
46731;SDS011;32477;51.474;5.696;2022-08-21T15:42:09;13.65;;;4.75;;
46731;SDS011;32477;51.474;5.696;2022-08-21T15:44:40;7.05;;;4.00;;
46731;SDS011;32477;51.474;5.696;2022-08-21T15:47:15;16.35;;;3.25;;
46731;SDS011;32477;51.474;5.696;2022-08-21T15:49:47;14.32;;;3.30;;
46731;SDS011;32477;51.474;5.696;2022-08-21T15:52:14;8.45;;;2.88;;
46731;SDS011;32477;51.474;5.696;2022-08-21T15:54:41;11.32;;;2.97;;
46731;SDS011;32477;51.474;5.696;2022-08-21T15:57:07;9.27;;;2.67;;
46731;SDS011;32477;51.474;5.696;2022-08-21T15:59:38;9.82;;;2.83;;
46731;SDS011;32477;51.474;5.696;2022-08-21T16:02:20;10.70;;;2.20;;
46731;SDS011;32477;51.474;5.696;2022-08-21T16:04:48;11.85;;;2.50;;